createdAt,value
2023-04-25T00:02:16.242Z,98329.64
2023-04-25T00:04:43.628Z,98330.80
2023-04-25T00:07:11.604Z,98329.79
2023-04-25T00:09:38.416Z,98327.58
2023-04-25T00:12:05.614Z,98325.13
2023-04-25T00:14:35.201Z,98324.14
2023-04-25T00:17:02.413Z,98325.34
2023-04-25T00:19:29.455Z,98321.84
2023-04-25T00:21:56.570Z,98317.56
2023-04-25T00:24:23.287Z,98317.95
2023-04-25T00:26:50.029Z,98312.43
2023-04-25T00:29:17.278Z,98308.82
2023-04-25T00:31:44.046Z,98307.40
2023-04-25T00:34:10.787Z,98305.08
2023-04-25T00:36:37.487Z,98302.38
2023-04-25T00:39:05.653Z,98299.58
2023-04-25T00:41:33.000Z,98295.65
2023-04-25T00:44:00.487Z,98294.77
2023-04-25T00:46:27.336Z,98290.73
2023-04-25T00:48:54.124Z,98289.15
2023-04-25T00:51:21.562Z,98288.83
2023-04-25T00:53:50.489Z,98287.51
2023-04-25T00:56:17.529Z,98289.59
2023-04-25T00:58:44.345Z,98289.55
2023-04-25T01:01:11.561Z,98290.18
2023-04-25T01:03:42.245Z,98293.27
2023-04-25T01:06:10.281Z,98292.23
2023-04-25T01:08:40.959Z,98293.98
2023-04-25T01:11:07.848Z,98296.14
2023-04-25T01:13:35.082Z,98293.17
2023-04-25T01:16:02.196Z,98290.91
2023-04-25T01:18:29.068Z,98292.66
2023-04-25T01:20:56.714Z,98285.33
2023-04-25T01:23:23.793Z,98284.46
2023-04-25T01:25:50.932Z,98284.89
2023-04-25T01:28:17.718Z,98285.84
2023-04-25T01:30:44.456Z,98284.79
2023-04-25T01:33:11.264Z,98281.40
2023-04-25T01:35:38.042Z,98284.02
2023-04-25T01:38:04.801Z,98276.32
2023-04-25T01:40:34.579Z,98274.71
2023-04-25T01:43:01.364Z,98271.42
2023-04-25T01:45:28.328Z,98270.59
2023-04-25T01:47:55.101Z,98272.40
2023-04-25T01:50:21.971Z,98270.08
2023-04-25T01:52:49.192Z,98271.95
2023-04-25T01:55:16.705Z,98272.59
2023-04-25T01:57:52.897Z,98268.06
2023-04-25T02:00:24.388Z,98268.05
2023-04-25T02:02:52.006Z,98265.64
2023-04-25T02:05:28.743Z,98264.43
2023-04-25T02:07:56.142Z,98264.70
2023-04-25T02:10:25.622Z,98263.61
2023-04-25T02:13:07.221Z,98267.28
2023-04-25T02:16:06.468Z,98266.73
2023-04-25T02:18:34.287Z,98267.39
2023-04-25T02:21:02.169Z,98266.76
2023-04-25T02:23:29.378Z,98268.33
2023-04-25T02:25:56.471Z,98263.79
2023-04-25T02:28:24.816Z,98269.27
2023-04-25T02:30:53.378Z,98269.45
2023-04-25T02:33:22.021Z,98269.08
2023-04-25T02:35:48.978Z,98265.81
2023-04-25T02:38:15.849Z,98269.54
2023-04-25T02:40:42.610Z,98262.25
2023-04-25T02:43:09.410Z,98265.02
2023-04-25T02:45:36.442Z,98265.94
2023-04-25T02:48:04.345Z,98262.48
2023-04-25T02:50:32.505Z,98262.86
2023-04-25T02:52:59.621Z,98256.48
2023-04-25T02:55:30.868Z,98262.59
2023-04-25T02:57:57.903Z,98264.95
2023-04-25T03:00:36.579Z,98267.14
2023-04-25T03:03:03.686Z,98265.80
2023-04-25T03:05:30.698Z,98266.26
2023-04-25T03:07:58.470Z,98261.83
2023-04-25T03:10:25.334Z,98264.98
2023-04-25T03:12:52.102Z,98261.39
2023-04-25T03:15:19.735Z,98260.36
2023-04-25T03:17:46.520Z,98260.31
2023-04-25T03:20:13.479Z,98262.02
2023-04-25T03:22:40.568Z,98264.42
2023-04-25T03:25:08.293Z,98264.85
2023-04-25T03:27:35.369Z,98260.51
2023-04-25T03:30:02.818Z,98262.20
2023-04-25T03:32:29.953Z,98261.53
2023-04-25T03:34:56.906Z,98262.08
2023-04-25T03:37:43.081Z,98263.61
2023-04-25T03:40:10.129Z,98263.24
2023-04-25T03:43:02.763Z,98260.86
2023-04-25T03:45:29.580Z,98256.10
2023-04-25T03:47:56.838Z,98257.40
2023-04-25T03:50:23.661Z,98259.31
2023-04-25T03:52:50.900Z,98257.85
2023-04-25T03:55:17.754Z,98258.66
2023-04-25T03:57:44.822Z,98257.80
2023-04-25T04:00:12.331Z,98258.17
2023-04-25T04:02:43.943Z,98262.67
2023-04-25T04:05:12.291Z,98264.23
2023-04-25T04:07:44.884Z,98259.88
2023-04-25T04:10:13.031Z,98257.29
2023-04-25T04:12:40.690Z,98254.98
2023-04-25T04:15:08.118Z,98253.34
2023-04-25T04:17:35.806Z,98256.66
2023-04-25T04:20:04.706Z,98254.36
2023-04-25T04:22:32.425Z,98252.11
2023-04-25T04:25:05.766Z,98255.07
2023-04-25T04:27:55.665Z,98251.34
2023-04-25T04:30:32.136Z,98247.40
2023-04-25T04:33:02.828Z,98247.32
2023-04-25T04:35:29.935Z,98242.78
2023-04-25T04:37:57.291Z,98241.76
2023-04-25T04:40:26.650Z,98239.52
2023-04-25T04:43:06.932Z,98241.70
2023-04-25T04:45:52.104Z,98241.38
2023-04-25T04:48:35.429Z,98242.29
2023-04-25T04:51:21.936Z,98242.51
2023-04-25T04:54:03.539Z,98242.02
2023-04-25T04:56:43.186Z,98241.19
2023-04-25T04:59:33.838Z,98241.70
2023-04-25T05:02:30.064Z,98241.83
2023-04-25T05:05:23.181Z,98241.64
2023-04-25T05:07:59.476Z,98243.30
2023-04-25T05:10:41.235Z,98243.88
2023-04-25T05:13:31.509Z,98239.54
2023-04-25T05:16:05.155Z,98237.09
2023-04-25T05:18:52.059Z,98239.36
2023-04-25T05:21:33.789Z,98233.45
2023-04-25T05:24:17.664Z,98229.98
2023-04-25T05:27:19.859Z,98230.58
2023-04-25T05:30:06.847Z,98227.73
2023-04-25T05:32:43.876Z,98232.13
2023-04-25T05:35:10.788Z,98230.83
2023-04-25T05:37:43.848Z,98227.95
2023-04-25T05:40:12.641Z,98229.23
2023-04-25T05:42:45.537Z,98228.73
2023-04-25T05:45:42.532Z,98227.67
2023-04-25T05:48:28.384Z,98228.09
2023-04-25T05:51:21.263Z,98226.80
2023-04-25T05:54:08.232Z,98225.81
2023-04-25T05:56:35.777Z,98223.91
2023-04-25T05:59:02.524Z,98224.34
2023-04-25T06:01:29.263Z,98219.56
2023-04-25T06:03:56.469Z,98218.48
2023-04-25T06:06:24.092Z,98219.75
2023-04-25T06:08:51.439Z,98217.55
2023-04-25T06:11:18.226Z,98219.40
2023-04-25T06:13:44.939Z,98220.63
2023-04-25T06:16:12.543Z,98216.55
2023-04-25T06:18:39.635Z,98216.50
2023-04-25T06:21:06.351Z,98209.84
2023-04-25T06:23:33.423Z,98209.14
2023-04-25T06:26:04.419Z,98207.47
2023-04-25T06:28:31.609Z,98204.94
2023-04-25T06:30:58.323Z,98198.56
2023-04-25T06:33:25.467Z,98199.63
2023-04-25T06:35:52.284Z,98195.42
2023-04-25T06:38:22.816Z,98195.25
2023-04-25T06:40:51.403Z,98196.89
2023-04-25T06:43:18.487Z,98193.66
2023-04-25T06:45:57.221Z,98194.90
2023-04-25T06:48:25.448Z,98194.47
2023-04-25T06:50:52.292Z,98194.23
2023-04-25T06:53:19.869Z,98196.88
2023-04-25T06:55:48.869Z,98191.15
2023-04-25T06:58:21.084Z,98191.61
2023-04-25T07:01:07.594Z,98193.45
2023-04-25T07:03:34.921Z,98195.60
2023-04-25T07:06:06.241Z,98190.61
2023-04-25T07:08:33.136Z,98192.09
2023-04-25T07:11:00.039Z,98192.89
2023-04-25T07:15:48.596Z,98189.33
2023-04-25T07:18:17.096Z,98189.27
2023-04-25T07:20:44.425Z,98190.79
2023-04-25T07:23:12.069Z,98191.98
2023-04-25T07:25:39.426Z,98192.11
2023-04-25T07:28:06.445Z,98190.81
2023-04-25T07:30:33.235Z,98193.31
2023-04-25T07:33:04.011Z,98190.61
2023-04-25T07:35:30.828Z,98187.27
2023-04-25T07:37:57.602Z,98191.70
2023-04-25T07:40:24.924Z,98188.90
2023-04-25T07:42:55.779Z,98185.61
2023-04-25T07:45:44.918Z,98187.23
2023-04-25T07:48:12.234Z,98188.34
2023-04-25T07:50:39.132Z,98186.67
2023-04-25T07:53:06.403Z,98187.42
2023-04-25T07:55:37.617Z,98185.72
2023-04-25T07:58:10.803Z,98185.20
2023-04-25T08:00:39.090Z,98183.31
2023-04-25T08:03:35.298Z,98173.87
2023-04-25T08:06:07.719Z,98176.84
2023-04-25T08:08:39.540Z,98178.68
2023-04-25T08:11:07.009Z,98171.77
2023-04-25T08:13:33.746Z,98167.33
2023-04-25T08:16:00.881Z,98166.71
2023-04-25T08:18:27.998Z,98167.57
2023-04-25T08:20:54.949Z,98171.79
2023-04-25T08:23:21.680Z,98173.25
2023-04-25T08:25:53.607Z,98169.14
2023-04-25T08:28:22.902Z,98170.01
2023-04-25T08:30:49.656Z,98165.39
2023-04-25T08:33:16.719Z,98161.54
2023-04-25T08:35:58.557Z,98159.42
2023-04-25T08:38:25.557Z,98158.70
2023-04-25T08:40:53.538Z,98157.98
2023-04-25T08:43:21.536Z,98157.98
2023-04-25T08:45:48.546Z,98156.75
2023-04-25T08:48:23.648Z,98154.65
2023-04-25T08:50:54.307Z,98152.59
2023-04-25T08:53:28.913Z,98152.27
2023-04-25T08:55:58.827Z,98152.09
2023-04-25T08:58:25.646Z,98147.73
2023-04-25T09:00:52.558Z,98147.00
2023-04-25T09:03:20.728Z,98143.53
2023-04-25T09:05:48.194Z,98138.48
2023-04-25T09:08:15.968Z,98136.89
2023-04-25T09:10:42.954Z,98131.50
2023-04-25T09:13:13.935Z,98137.99
2023-04-25T09:16:00.080Z,98132.41
2023-04-25T09:18:39.722Z,98128.64
2023-04-25T09:21:14.321Z,98128.21
2023-04-25T09:23:50.887Z,98127.11
2023-04-25T09:26:21.868Z,98125.90
2023-04-25T09:28:49.345Z,98128.98
2023-04-25T09:31:27.131Z,98127.91
2023-04-25T09:34:02.250Z,98126.88
2023-04-25T09:36:31.410Z,98124.81
2023-04-25T09:39:30.896Z,98120.65
2023-04-25T09:42:08.580Z,98119.04
2023-04-25T09:44:36.970Z,98120.98
2023-04-25T09:47:04.018Z,98116.27
2023-04-25T09:49:31.296Z,98112.20
2023-04-25T09:52:02.793Z,98108.80
2023-04-25T09:54:56.111Z,98103.40
2023-04-25T09:57:28.904Z,98103.24
2023-04-25T09:59:56.948Z,98101.17
2023-04-25T10:02:26.776Z,98097.07
2023-04-25T10:04:56.973Z,98097.54
2023-04-25T10:07:36.401Z,98093.41
2023-04-25T10:10:04.848Z,98088.73
2023-04-25T10:12:32.442Z,98088.20
2023-04-25T10:14:59.433Z,98085.61
2023-04-25T10:17:28.905Z,98081.91
2023-04-25T10:19:55.766Z,98083.44
2023-04-25T10:22:39.918Z,98079.42
2023-04-25T10:25:07.151Z,98080.04
2023-04-25T10:27:34.281Z,98073.06
2023-04-25T10:30:05.616Z,98071.86
2023-04-25T10:32:34.088Z,98070.75
2023-04-25T10:35:17.784Z,98053.61
2023-04-25T10:38:01.586Z,98058.86
2023-04-25T10:40:28.440Z,98064.93
2023-04-25T10:42:57.144Z,98063.63
2023-04-25T10:45:23.917Z,98066.58
2023-04-25T10:47:50.752Z,98066.20
2023-04-25T10:50:18.177Z,98055.83
2023-04-25T10:52:47.974Z,98059.87
2023-04-25T10:55:14.759Z,98060.01
2023-04-25T10:57:47.339Z,98061.72
2023-04-25T11:00:16.499Z,98052.34
2023-04-25T11:02:46.891Z,98052.45
2023-04-25T11:05:51.077Z,98054.58
2023-04-25T11:08:49.101Z,98052.79
2023-04-25T11:11:18.410Z,98048.92
2023-04-25T11:13:46.053Z,98045.48
2023-04-25T11:16:23.611Z,98039.52
2023-04-25T11:18:54.285Z,98037.40
2023-04-25T11:21:21.103Z,98031.97
2023-04-25T11:23:47.921Z,98027.71
2023-04-25T11:26:16.189Z,98030.64
2023-04-25T11:28:46.351Z,98021.36
2023-04-25T11:31:13.325Z,98016.57
2023-04-25T11:33:41.883Z,98015.80
2023-04-25T11:36:08.935Z,98015.89
2023-04-25T11:38:35.796Z,98022.91
2023-04-25T11:41:02.768Z,98020.86
2023-04-25T11:43:29.652Z,98021.27
2023-04-25T11:45:56.810Z,98020.34
2023-04-25T11:48:25.975Z,98014.54
2023-04-25T11:50:55.211Z,98010.33
2023-04-25T11:53:22.138Z,98003.77
2023-04-25T11:55:48.886Z,98003.14
2023-04-25T11:58:15.664Z,98005.34
2023-04-25T12:00:50.097Z,98004.81
2023-04-25T12:03:18.865Z,98002.29
2023-04-25T12:05:46.378Z,98002.42
2023-04-25T12:08:17.048Z,97995.50
2023-04-25T12:10:46.430Z,97989.32
2023-04-25T12:13:27.001Z,97986.05
2023-04-25T12:15:55.621Z,97985.42
2023-04-25T12:18:24.497Z,97986.66
2023-04-25T12:20:51.409Z,97982.25
2023-04-25T12:23:18.314Z,97979.22
2023-04-25T12:25:46.141Z,97981.11
2023-04-25T12:28:28.947Z,97972.54
2023-04-25T12:31:00.141Z,97978.11
2023-04-25T12:33:28.553Z,97970.42
2023-04-25T12:35:55.743Z,97969.67
2023-04-25T12:38:31.171Z,97970.04
2023-04-25T12:41:01.004Z,97966.38
2023-04-25T12:43:27.801Z,97963.46
2023-04-25T12:45:56.401Z,97963.20
2023-04-25T12:48:23.347Z,97955.81
2023-04-25T12:50:50.826Z,97949.02
2023-04-25T12:53:18.654Z,97943.98
2023-04-25T12:55:47.829Z,97937.45
2023-04-25T12:58:19.127Z,97940.23
2023-04-25T13:00:46.302Z,97934.77
2023-04-25T13:03:13.813Z,97931.73
2023-04-25T13:08:28.286Z,97919.50
2023-04-25T13:10:55.050Z,97918.41
2023-04-25T13:13:21.933Z,97921.04
2023-04-25T13:15:48.792Z,97920.04
2023-04-25T13:18:16.235Z,97919.34
2023-04-25T13:20:42.961Z,97918.26
2023-04-25T13:23:09.650Z,97913.18
2023-04-25T13:25:36.355Z,97913.34
2023-04-25T13:28:03.250Z,97912.66
2023-04-25T13:30:29.994Z,97906.74
2023-04-25T13:32:58.376Z,97902.54
2023-04-25T13:35:26.893Z,97902.26
2023-04-25T13:37:53.728Z,97898.73
2023-04-25T13:40:20.637Z,97898.12
2023-04-25T13:42:47.736Z,97898.90
2023-04-25T13:45:14.551Z,97895.64
2023-04-25T13:47:41.426Z,97895.11
2023-04-25T13:50:09.027Z,97892.44
2023-04-25T13:52:35.782Z,97888.41
2023-04-25T13:55:04.530Z,97879.82
2023-04-25T13:57:32.725Z,97882.58
2023-04-25T13:59:59.500Z,97881.34
2023-04-25T14:02:27.086Z,97883.49
2023-04-25T14:04:53.931Z,97881.64
2023-04-25T14:07:22.024Z,97877.61
2023-04-25T14:09:48.754Z,97877.45
2023-04-25T14:12:16.830Z,97876.05
2023-04-25T14:14:43.520Z,97871.36
2023-04-25T14:17:10.362Z,97873.40
2023-04-25T14:19:38.681Z,97871.95
2023-04-25T14:22:05.975Z,97863.80
2023-04-25T14:24:32.679Z,97866.27
2023-04-25T14:26:59.519Z,97868.89
2023-04-25T14:29:26.213Z,97869.55
2023-04-25T14:31:52.976Z,97865.91
2023-04-25T14:34:20.061Z,97865.14
2023-04-25T14:36:46.786Z,97862.25
2023-04-25T14:39:15.083Z,97859.36
2023-04-25T14:41:41.804Z,97857.33
2023-04-25T14:44:09.394Z,97860.41
2023-04-25T14:46:36.347Z,97856.63
2023-04-25T14:49:04.105Z,97859.31
2023-04-25T14:51:32.075Z,97857.44
2023-04-25T14:53:59.132Z,97852.55
2023-04-25T14:56:25.952Z,97848.52
2023-04-25T14:58:52.780Z,97851.98
2023-04-25T15:01:21.778Z,97844.24
2023-04-25T15:03:49.559Z,97839.86
2023-04-25T15:06:16.509Z,97835.51
2023-04-25T15:08:43.205Z,97833.75
2023-04-25T15:11:12.148Z,97834.56
2023-04-25T15:13:38.849Z,97830.25
2023-04-25T15:16:06.261Z,97827.61
2023-04-25T15:18:33.042Z,97824.81
2023-04-25T15:20:59.749Z,97823.01
2023-04-25T15:23:27.838Z,97825.27
2023-04-25T15:25:55.947Z,97821.58
2023-04-25T15:28:23.101Z,97819.91
2023-04-25T15:30:49.979Z,97819.77
2023-04-25T15:33:16.984Z,97817.88
2023-04-25T15:35:44.082Z,97815.61
2023-04-25T15:38:11.748Z,97814.57
2023-04-25T15:40:38.516Z,97808.15
2023-04-25T15:43:05.287Z,97808.67
2023-04-25T15:45:33.138Z,97806.85
2023-04-25T15:47:59.951Z,97808.35
2023-04-25T15:50:27.057Z,97806.55
2023-04-25T15:52:54.884Z,97805.61
2023-04-25T15:55:22.045Z,97802.98
2023-04-25T15:57:49.641Z,97797.28
2023-04-25T16:00:17.902Z,97796.84
2023-04-25T16:02:45.926Z,97798.28
2023-04-25T16:05:14.748Z,97800.14
2023-04-25T16:07:43.693Z,97798.27
2023-04-25T16:10:11.480Z,97795.27
2023-04-25T16:12:39.685Z,97800.20
2023-04-25T16:15:06.879Z,97796.24
2023-04-25T16:17:33.910Z,97797.46
2023-04-25T16:20:04.514Z,97794.88
2023-04-25T16:22:31.936Z,97796.58
2023-04-25T16:24:58.649Z,97798.63
2023-04-25T16:27:25.795Z,97798.82
2023-04-25T16:29:52.527Z,97798.64
2023-04-25T16:32:19.515Z,97797.71
2023-04-25T16:34:46.285Z,97798.95
2023-04-25T16:37:13.072Z,97794.56
2023-04-25T16:39:39.823Z,97796.88
2023-04-25T16:42:06.957Z,97795.60
2023-04-25T16:44:33.781Z,97798.05
2023-04-25T16:47:00.666Z,97803.29
2023-04-25T16:49:27.525Z,97804.10
2023-04-25T16:51:54.260Z,97806.81
2023-04-25T16:54:21.411Z,97804.55
2023-04-25T16:56:48.163Z,97804.24
2023-04-25T16:59:14.919Z,97807.11
2023-04-25T17:01:41.638Z,97808.17
2023-04-25T17:04:08.445Z,97807.45
2023-04-25T17:06:35.410Z,97806.81
2023-04-25T17:09:02.166Z,97804.10
2023-04-25T17:11:28.914Z,97809.67
2023-04-25T17:13:55.718Z,97806.73
2023-04-25T17:16:23.402Z,97811.31
2023-04-25T17:18:53.354Z,97806.54
2023-04-25T17:21:20.426Z,97808.40
2023-04-25T17:23:47.319Z,97808.14
2023-04-25T17:26:14.922Z,97813.23
2023-04-25T17:28:42.337Z,97815.64
2023-04-25T17:31:09.858Z,97816.98
2023-04-25T17:33:36.868Z,97821.71
2023-04-25T17:36:04.142Z,97825.22
2023-04-25T17:38:31.748Z,97825.56
2023-04-25T17:40:58.871Z,97823.55
2023-04-25T17:43:26.760Z,97831.04
2023-04-25T17:45:54.073Z,97831.49
2023-04-25T17:48:22.966Z,97833.36
2023-04-25T17:50:49.794Z,97830.78
2023-04-25T17:53:16.616Z,97836.32
2023-04-25T17:55:43.885Z,97836.61
2023-04-25T17:58:11.509Z,97837.88
2023-04-25T18:00:39.412Z,97836.73
2023-04-25T18:03:07.705Z,97833.45
2023-04-25T18:05:34.774Z,97836.91
2023-04-25T18:08:01.575Z,97838.77
2023-04-25T18:10:28.459Z,97838.34
2023-04-25T18:12:55.348Z,97838.66
2023-04-25T18:15:22.903Z,97841.85
2023-04-25T18:17:49.767Z,97839.23
2023-04-25T18:20:17.107Z,97845.28
2023-04-25T18:22:44.938Z,97843.05
2023-04-25T18:25:11.983Z,97844.48
2023-04-25T18:27:39.038Z,97845.41
2023-04-25T18:30:07.552Z,97847.39
2023-04-25T18:32:34.488Z,97845.60
2023-04-25T18:35:01.620Z,97844.42
2023-04-25T18:37:28.614Z,97843.30
2023-04-25T18:39:55.509Z,97845.27
2023-04-25T18:42:22.734Z,97845.54
2023-04-25T18:44:49.762Z,97847.34
2023-04-25T18:47:16.918Z,97848.29
2023-04-25T18:49:44.070Z,97851.99
2023-04-25T18:52:12.731Z,97845.98
2023-04-25T18:54:39.657Z,97850.92
2023-04-25T18:57:06.484Z,97849.70
2023-04-25T18:59:33.732Z,97853.04
2023-04-25T19:02:02.094Z,97856.23
2023-04-25T19:04:29.319Z,97850.02
2023-04-25T19:06:56.422Z,97852.52
2023-04-25T19:09:23.381Z,97852.98
2023-04-25T19:11:50.099Z,97850.00
2023-04-25T19:14:16.848Z,97847.64
2023-04-25T19:16:43.652Z,97848.23
2023-04-25T19:19:10.963Z,97845.98
2023-04-25T19:21:38.018Z,97845.50
2023-04-25T19:24:05.505Z,97842.84
2023-04-25T19:26:32.392Z,97839.86
2023-04-25T19:29:10.092Z,97838.94
2023-04-25T19:33:27.460Z,97843.05
2023-04-25T19:35:54.327Z,97843.41
2023-04-25T19:38:21.420Z,97842.77
2023-04-25T19:40:49.102Z,97841.42
2023-04-25T19:43:15.830Z,97843.02
2023-04-25T19:45:42.535Z,97841.45
2023-04-25T19:48:10.423Z,97839.86
2023-04-25T19:50:37.271Z,97839.94
2023-04-25T19:53:04.460Z,97841.14
2023-04-25T19:55:31.198Z,97841.80
2023-04-25T19:57:58.008Z,97839.45
2023-04-25T20:00:24.750Z,97838.99
2023-04-25T20:02:51.484Z,97841.64
2023-04-25T20:05:18.775Z,97839.81
2023-04-25T20:07:45.492Z,97839.05
2023-04-25T20:10:16.606Z,97836.54
2023-04-25T20:12:44.312Z,97837.58
2023-04-25T20:15:11.864Z,97838.05
2023-04-25T20:17:40.302Z,97840.73
2023-04-25T20:20:08.526Z,97842.14
2023-04-25T20:22:36.283Z,97844.71
2023-04-25T20:25:07.114Z,97844.11
2023-04-25T20:27:33.836Z,97847.85
2023-04-25T20:30:04.923Z,97847.98
2023-04-25T20:32:34.885Z,97847.70
2023-04-25T20:35:05.908Z,97848.65
2023-04-25T20:37:33.314Z,97850.17
2023-04-25T20:40:00.684Z,97849.42
2023-04-25T20:42:27.529Z,97850.63
2023-04-25T20:44:54.742Z,97855.99
2023-04-25T20:47:22.558Z,97858.32
2023-04-25T20:49:50.074Z,97860.47
2023-04-25T20:52:17.442Z,97856.79
2023-04-25T20:54:45.246Z,97861.13
2023-04-25T20:57:12.398Z,97855.45
2023-04-25T20:59:39.135Z,97861.10
2023-04-25T21:02:05.908Z,97862.04
2023-04-25T21:04:32.683Z,97863.13
2023-04-25T21:07:00.942Z,97861.81
2023-04-25T21:09:27.775Z,97861.84
2023-04-25T21:11:54.619Z,97864.48
2023-04-25T21:14:23.002Z,97866.91
2023-04-25T21:16:49.756Z,97863.71
2023-04-25T21:19:16.771Z,97868.67
2023-04-25T21:21:44.539Z,97867.83
2023-04-25T21:24:13.013Z,97870.02
2023-04-25T21:26:39.814Z,97868.52
2023-04-25T21:29:06.539Z,97867.02
2023-04-25T21:31:33.356Z,97870.20
2023-04-25T21:34:00.851Z,97869.79
2023-04-25T21:36:27.968Z,97875.23
2023-04-25T21:38:55.007Z,97869.11
2023-04-25T21:41:22.589Z,97866.73
2023-04-25T21:43:49.327Z,97867.27
2023-04-25T21:46:23.376Z,97864.45
2023-04-25T21:48:51.634Z,97864.98
2023-04-25T21:51:18.732Z,97861.60
2023-04-25T21:53:45.521Z,97861.14
2023-04-25T21:56:12.828Z,97858.59
2023-04-25T21:58:39.648Z,97856.98
2023-04-25T22:01:06.514Z,97853.91
2023-04-25T22:03:33.664Z,97853.98
2023-04-25T22:06:01.303Z,97855.10
2023-04-25T22:08:28.161Z,97850.67
2023-04-25T22:10:57.872Z,97850.11
2023-04-25T22:13:24.784Z,97849.54
2023-04-25T22:15:52.769Z,97850.03
2023-04-25T22:18:19.897Z,97848.98
2023-04-25T22:20:46.741Z,97844.80
2023-04-25T22:23:14.312Z,97843.12
2023-04-25T22:25:42.173Z,97843.96
2023-04-25T22:28:08.941Z,97845.52
2023-04-25T22:30:35.641Z,97841.94
2023-04-25T22:33:02.361Z,97841.84
2023-04-25T22:35:29.178Z,97842.64
2023-04-25T22:37:55.864Z,97844.04
2023-04-25T22:40:22.688Z,97841.78
2023-04-25T22:42:49.565Z,97843.73
2023-04-25T22:45:17.301Z,97843.33
2023-04-25T22:47:44.283Z,97841.61
2023-04-25T22:50:16.832Z,97844.70
2023-04-25T22:52:44.003Z,97842.06
2023-04-25T22:55:12.553Z,97844.67
2023-04-25T22:57:39.660Z,97845.65
2023-04-25T23:00:27.724Z,97853.15
2023-04-25T23:02:54.912Z,97848.55
2023-04-25T23:05:24.514Z,97847.77
2023-04-25T23:07:51.216Z,97849.54
2023-04-25T23:10:19.392Z,97846.70
2023-04-25T23:12:46.164Z,97850.27
2023-04-25T23:15:13.724Z,97849.51
2023-04-25T23:17:40.854Z,97849.33
2023-04-25T23:20:10.772Z,97846.69
2023-04-25T23:22:38.240Z,97843.14
2023-04-25T23:25:05.897Z,97843.96
2023-04-25T23:27:33.054Z,97843.30
2023-04-25T23:29:59.723Z,97842.45
2023-04-25T23:32:26.893Z,97838.96
2023-04-25T23:34:53.666Z,97837.77
2023-04-25T23:37:20.449Z,97838.78
2023-04-25T23:39:49.393Z,97841.45
2023-04-25T23:42:17.196Z,97839.68
2023-04-25T23:44:43.999Z,97838.39
2023-04-25T23:47:13.103Z,97837.95
2023-04-25T23:49:40.981Z,97833.70
2023-04-25T23:52:07.926Z,97836.23
2023-04-25T23:54:34.744Z,97842.14
2023-04-25T23:57:04.435Z,97838.48
2023-04-25T23:59:31.652Z,97840.09
